^^
Saratoga-Weather Station Historical Data
Daily Summary for March 14, 2021 Units:  Both    English   Metric
Daily Weekly Monthly Yearly Custom
  High: Low: Average:
Temperature: 62.8 °F /  17.1 °C 55.6 °F /  13.1 °C 58.5 °F /  14.7 °C
Dew Point: 49.6 °F /  9.8 °C 48 °F /  8.9 °C 48.7 °F /  9.3 °C
Humidity: 77% 61% 70%
Wind Speed: 2mph /  3.2km/h - 0.1mph /  0.2km/h
Wind Gust: 2mph /  3.2km/h - -
Wind- - SW
Pressure: 30.2 in /  1022.4 hPa 30.2 in /  1021.3 hPa -
Precipitation: 0 in /  0.0 mm    
Historical Graphs
 
 
Tabular Data for March 14, 2021
Time Temperature Dew Point Pressure Wind Wind Speed Wind Gust Humidity Rainfall Rate (Hourly) solar
00:01 62.8 °F /  17.1 °C 49.6 °F /  9.8 °C 30.2in /  1022.4hPa Calm   1mph /  1.6km/h 62% 0in /  0.0mm 0 W/m2
00:06 62.2 °F /  16.8 °C 48.6 °F /  9.2 °C 30.2in /  1022.4hPa SW 0.9mph /  1.4km/h 1mph /  1.6km/h 61% 0in /  0.0mm 0 W/m2
00:11 62.1 °F /  16.7 °C 49.3 °F /  9.6 °C 30.2in /  1022.4hPa Calm   2mph /  3.2km/h 63% 0in /  0.0mm 0 W/m2
00:16 61.9 °F /  16.6 °C 49.1 °F /  9.5 °C 30.2in /  1022.4hPa Calm   1mph /  1.6km/h 63% 0in /  0.0mm 0 W/m2
00:21 61.5 °F /  16.4 °C 49.3 °F /  9.6 °C 30.2in /  1022.4hPa Calm     64% 0in /  0.0mm 0 W/m2
00:26 61.3 °F /  16.3 °C 49.1 °F /  9.5 °C 30.2in /  1022.4hPa Calm   1mph /  1.6km/h 64% 0in /  0.0mm 0 W/m2
00:31 61.2 °F /  16.2 °C 49.3 °F /  9.6 °C 30.2in /  1022.4hPa Calm     65% 0in /  0.0mm 0 W/m2
00:36 60.8 °F /  16 °C 49.5 °F /  9.7 °C 30.2in /  1022.4hPa Calm   2mph /  3.2km/h 66% 0in /  0.0mm 0 W/m2
00:41 60.4 °F /  15.8 °C 49.1 °F /  9.5 °C 30.2in /  1022.4hPa Calm   1mph /  1.6km/h 66% 0in /  0.0mm 0 W/m2
00:46 60.3 °F /  15.7 °C 48.9 °F /  9.4 °C 30.2in /  1022.4hPa Calm     66% 0in /  0.0mm 0 W/m2
00:51 60.1 °F /  15.6 °C 49.1 °F /  9.5 °C 30.2in /  1022.4hPa Calm   1mph /  1.6km/h 67% 0in /  0.0mm 0 W/m2
00:56 59.7 °F /  15.4 °C 48.7 °F /  9.3 °C 30.2in /  1022.4hPa Calm   2mph /  3.2km/h 67% 0in /  0.0mm 0 W/m2
01:01 59.5 °F /  15.3 °C 48.6 °F /  9.2 °C 30.2in /  1022.4hPa SW 0.9mph /  1.4km/h 1mph /  1.6km/h 67% 0in /  0.0mm 0 W/m2
01:06 59.4 °F /  15.2 °C 48.7 °F /  9.3 °C 30.2in /  1022.4hPa Calm     68% 0in /  0.0mm 0 W/m2
01:11 59.4 °F /  15.2 °C 49.1 °F /  9.5 °C 30.2in /  1022.4hPa Calm     69% 0in /  0.0mm 0 W/m2
01:16 59.2 °F /  15.1 °C 49.1 °F /  9.5 °C 30.2in /  1022.4hPa Calm   1mph /  1.6km/h 69% 0in /  0.0mm 0 W/m2
01:21 58.8 °F /  14.9 °C 49.1 °F /  9.5 °C 30.2in /  1022.4hPa Calm   1mph /  1.6km/h 70% 0in /  0.0mm 0 W/m2
01:26 58.6 °F /  14.8 °C 48.9 °F /  9.4 °C 30.2in /  1022.4hPa SW 0.9mph /  1.4km/h 2mph /  3.2km/h 70% 0in /  0.0mm 0 W/m2
01:31 58.5 °F /  14.7 °C 48.7 °F /  9.3 °C 30.2in /  1022.4hPa Calm   2mph /  3.2km/h 70% 0in /  0.0mm 0 W/m2
01:36 58.5 °F /  14.7 °C 48.7 °F /  9.3 °C 30.2in /  1022.4hPa Calm   1mph /  1.6km/h 70% 0in /  0.0mm 0 W/m2
01:41 58.5 °F /  14.7 °C 49.1 °F /  9.5 °C 30.2in /  1022.4hPa Calm     71% 0in /  0.0mm 0 W/m2
01:46 58.3 °F /  14.6 °C 48.9 °F /  9.4 °C 30.2in /  1022.4hPa Calm     71% 0in /  0.0mm 0 W/m2
01:51 58.3 °F /  14.6 °C 48.9 °F /  9.4 °C 30.2in /  1022.4hPa Calm   2mph /  3.2km/h 71% 0in /  0.0mm 0 W/m2
01:56 58.3 °F /  14.6 °C 48.9 °F /  9.4 °C 30.2in /  1022.4hPa Calm     71% 0in /  0.0mm 0 W/m2
02:01 58.1 °F /  14.5 °C 48.4 °F /  9.1 °C 30.2in /  1022.0hPa Calm   2mph /  3.2km/h 70% 0in /  0.0mm 0 W/m2
02:06 57.9 °F /  14.4 °C 48.2 °F /  9 °C 30.2in /  1022.0hPa Calm   1mph /  1.6km/h 70% 0in /  0.0mm 0 W/m2
02:11 57.9 °F /  14.4 °C 48.2 °F /  9 °C 30.2in /  1022.0hPa Calm   1mph /  1.6km/h 70% 0in /  0.0mm 0 W/m2
02:16 58.1 °F /  14.5 °C 48.7 °F /  9.3 °C 30.2in /  1022.0hPa Calm     71% 0in /  0.0mm 0 W/m2
02:21 57.9 °F /  14.4 °C 48.6 °F /  9.2 °C 30.2in /  1022.0hPa Calm     71% 0in /  0.0mm 0 W/m2
02:26 57.9 °F /  14.4 °C 48.6 °F /  9.2 °C 30.2in /  1022.0hPa SW 2mph /  3.2km/h 2mph /  3.2km/h 71% 0in /  0.0mm 0 W/m2
02:31 57.7 °F /  14.3 °C 48.4 °F /  9.1 °C 30.2in /  1022.0hPa Calm     71% 0in /  0.0mm 0 W/m2
02:36 57.7 °F /  14.3 °C 48.4 °F /  9.1 °C 30.2in /  1022.0hPa Calm     71% 0in /  0.0mm 0 W/m2
02:41 57.7 °F /  14.3 °C 48.4 °F /  9.1 °C 30.2in /  1022.0hPa Calm     71% 0in /  0.0mm 0 W/m2
02:46 57.6 °F /  14.2 °C 48.6 °F /  9.2 °C 30.2in /  1022.0hPa Calm     72% 0in /  0.0mm 0 W/m2
02:51 57.4 °F /  14.1 °C 48 °F /  8.9 °C 30.2in /  1022.0hPa Calm     71% 0in /  0.0mm 0 W/m2
02:56 57.2 °F /  14 °C 48.2 °F /  9 °C 30.2in /  1021.7hPa Calm     72% 0in /  0.0mm 0 W/m2
03:01 57 °F /  13.9 °C 48 °F /  8.9 °C 30.2in /  1021.7hPa Calm     72% 0in /  0.0mm 0 W/m2
03:06 56.8 °F /  13.8 °C 48.2 °F /  9 °C 30.2in /  1021.7hPa Calm     73% 0in /  0.0mm 0 W/m2
03:11 56.7 °F /  13.7 °C 48 °F /  8.9 °C 30.2in /  1021.7hPa Calm     73% 0in /  0.0mm 0 W/m2
03:16 56.5 °F /  13.6 °C 48 °F /  8.9 °C 30.2in /  1021.7hPa Calm     73% 0in /  0.0mm 0 W/m2
03:21 56.5 °F /  13.6 °C 48.4 °F /  9.1 °C 30.2in /  1021.7hPa Calm     74% 0in /  0.0mm 0 W/m2
03:26 56.3 °F /  13.5 °C 48.2 °F /  9 °C 30.2in /  1021.7hPa SW 0.9mph /  1.4km/h 1mph /  1.6km/h 74% 0in /  0.0mm 0 W/m2
03:32 56.3 °F /  13.5 °C 48.6 °F /  9.2 °C 30.2in /  1021.7hPa Calm   1mph /  1.6km/h 75% 0in /  0.0mm 0 W/m2
03:37 56.1 °F /  13.4 °C 48.4 °F /  9.1 °C 30.2in /  1021.7hPa Calm     75% 0in /  0.0mm 0 W/m2
03:42 55.9 °F /  13.3 °C 48.6 °F /  9.2 °C 30.2in /  1021.7hPa Calm     76% 0in /  0.0mm 0 W/m2
03:47 55.9 °F /  13.3 °C 48.2 °F /  9 °C 30.2in /  1021.7hPa Calm     75% 0in /  0.0mm 0 W/m2
03:52 55.8 °F /  13.2 °C 48.4 °F /  9.1 °C 30.2in /  1021.7hPa Calm   1mph /  1.6km/h 76% 0in /  0.0mm 0 W/m2
03:57 55.8 °F /  13.2 °C 48.4 °F /  9.1 °C 30.2in /  1021.7hPa SW 0.9mph /  1.4km/h 1mph /  1.6km/h 76% 0in /  0.0mm 0 W/m2
04:02 55.8 °F /  13.2 °C 48.4 °F /  9.1 °C 30.2in /  1021.7hPa Calm   2mph /  3.2km/h 76% 0in /  0.0mm 0 W/m2
04:07 55.6 °F /  13.1 °C 48.6 °F /  9.2 °C 30.2in /  1021.3hPa Calm   2mph /  3.2km/h 77% 0in /  0.0mm 0 W/m2
Juneau County Weather
Compliments of Weather Underground - 2 mb